Little Burnt Bay, Canada
Current Conditions -  °F | °C
As of 2:00 PM on Friday 28 Nov 2014 (Local Time) from CYQX Reporting Station
Freezing Drizzle Freezing Drizzle  
Wind Chill: 20°   Ceiling: 700
Heat Index: 28°   Visibility: 8mi
Dew Point: 27°   Wind: 9mph
Humidity: 93%   Direction: 350°N
Pressure: 29.82"   Gusts: NA
Location:  49.33°N, 55.08°W
Report Text: CYQX 281700Z 35008KT 8SM -FZDZ BKN007 BKN012 BKN025 M02/M03 A2982 RMK SF5SC1SC1 SLP106
Loading
Personal Weather Stations






























Interactive Weather Map New forecast layout! Learn more

10-Day Weather Forecast

Advertisements
Track Severe Weather on mobile